Time;durP1;ratioP1;P1;durP2;ratioP2;P2;SDS_P1;SDS_P2;PMS_P1;PMS_P2;Temp;Humidity;BMP_temperature;BMP_pressure;BME280_temperature;BME280_humidity;BME280_pressure;Samples;Min_cycle;Max_cycle;Signal;HPM_P1;HPM_P2
2022/05/06 00:01:46;;;;;;;33.70;21.10;;;12.80;99.90;;;;;;5055869;28;20025;-66
2022/05/06 00:04:15;;;;;;;30.33;21.70;;;12.80;99.90;;;;;;5055986;28;20021;-65
2022/05/06 00:06:42;;;;;;;33.25;21.38;;;12.70;99.90;;;;;;5054586;28;20059;-66
2022/05/06 00:09:08;;;;;;;;;;;12.70;99.90;;;;;;5054582;28;20206;-66
2022/05/06 00:11:33;;;;;;;31.40;20.70;;;12.80;99.90;;;;;;5055796;28;20269;-67
2022/05/06 00:13:59;;;;;;;32.92;22.08;;;12.70;99.90;;;;;;5054498;28;20074;-65
2022/05/06 00:16:26;;;;;;;36.87;22.70;;;12.80;99.90;;;;;;5055938;28;20033;-66
2022/05/06 00:18:52;;;;;;;37.08;21.83;;;12.80;99.90;;;;;;5054552;28;20025;-68
2022/05/06 00:21:18;;;;;;;31.70;20.80;;;12.80;99.90;;;;;;5081509;22;20071;-66
2022/05/06 00:23:44;;;;;;;35.97;22.35;;;12.70;99.90;;;;;;5116017;28;20031;-67
2022/05/06 00:26:10;;;;;;;35.83;23.17;;;12.70;99.90;;;;;;5116727;28;20030;-67
2022/05/06 00:28:37;;;;;;;37.25;23.25;;;12.80;99.90;;;;;;5115848;28;20098;-67
2022/05/06 00:31:03;;;;;;;37.72;22.95;;;12.70;99.90;;;;;;5115723;28;20015;-67
2022/05/06 00:33:29;;;;;;;;;;;12.80;99.90;;;;;;5115942;28;20019;-67
2022/05/06 00:35:56;;;;;;;36.63;23.10;;;12.90;99.90;;;;;;5115096;28;19903;-66
2022/05/06 00:38:22;;;;;;;36.60;23.60;;;12.80;99.90;;;;;;5115486;28;20015;-66
2022/05/06 00:40:47;;;;;;;38.47;24.33;;;12.80;99.90;;;;;;5116350;28;20043;-67
2022/05/06 00:43:13;;;;;;;40.55;23.77;;;12.80;99.90;;;;;;5115362;28;20023;-67
2022/05/06 00:45:57;;;;;;;38.08;22.20;;;12.70;99.90;;;;;;5115614;28;20023;-67
2022/05/06 00:48:34;;;;;;;34.00;23.38;;;12.70;99.90;;;;;;5115702;28;20076;-67
2022/05/06 00:51:01;;;;;;;38.45;23.58;;;12.70;99.90;;;;;;5115735;28;20063;-67
2022/05/06 00:53:27;;;;;;;35.53;22.55;;;12.80;99.90;;;;;;5115246;28;20027;-67
2022/05/06 00:55:55;;;;;;;31.83;22.38;;;12.70;99.90;;;;;;5115203;28;20072;-67
2022/05/06 00:58:23;;;;;;;39.13;24.88;;;12.70;99.90;;;;;;5115310;28;20042;-67
2022/05/06 01:00:49;;;;;;;40.90;23.98;;;12.70;99.90;;;;;;5115348;28;20046;-67
2022/05/06 01:03:15;;;;;;;37.83;24.48;;;12.60;99.90;;;;;;5114968;28;20527;-66
2022/05/06 01:05:41;;;;;;;38.03;22.98;;;12.60;99.90;;;;;;5115070;28;20039;-66
2022/05/06 01:08:08;;;;;;;41.05;24.85;;;12.60;99.90;;;;;;5115083;28;20027;-66
2022/05/06 01:10:37;;;;;;;36.15;23.48;;;12.60;99.90;;;;;;5114762;28;20034;-66
2022/05/06 01:13:02;;;;;;;35.60;23.75;;;12.60;99.90;;;;;;5114495;28;20197;-66
2022/05/06 01:15:29;;;;;;;37.88;24.60;;;12.60;99.90;;;;;;5096223;28;20024;-67
2022/05/06 01:17:55;;;;;;;;;;;12.60;99.90;;;;;;5114910;28;20218;-67
2022/05/06 01:20:23;;;;;;;41.13;23.45;;;12.60;99.90;;;;;;5096346;28;20287;-66
2022/05/06 01:22:59;;;;;;;41.60;26.42;;;12.60;99.90;;;;;;5114261;28;20122;-67
2022/05/06 01:25:26;;;;;;;39.33;23.33;;;12.60;99.90;;;;;;5096326;28;20027;-68
2022/05/06 01:27:55;;;;;;;38.05;24.20;;;12.50;99.90;;;;;;5096298;28;20029;-67
2022/05/06 01:30:29;;;;;;;38.13;23.70;;;12.50;99.90;;;;;;5095813;28;20020;-67
2022/05/06 01:32:57;;;;;;;36.28;22.80;;;12.50;99.90;;;;;;5095931;28;20102;-67
2022/05/06 01:35:24;;;;;;;37.70;23.02;;;12.50;99.90;;;;;;5096170;28;20464;-67
2022/05/06 01:37:53;;;;;;;35.60;22.45;;;12.50;99.90;;;;;;5114268;28;20027;-67
2022/05/06 01:40:20;;;;;;;42.95;25.95;;;12.50;99.90;;;;;;5095844;28;20448;-67
2022/05/06 01:42:48;;;;;;;41.95;25.17;;;12.50;99.90;;;;;;5114204;28;20031;-67
2022/05/06 01:45:16;;;;;;;38.47;22.10;;;12.50;99.90;;;;;;5114199;28;20462;-67
2022/05/06 01:47:42;;;;;;;35.13;22.70;;;12.50;99.90;;;;;;5095638;28;20038;-68
2022/05/06 01:50:10;;;;;;;33.42;21.88;;;12.50;99.90;;;;;;5113948;28;20034;-67
2022/05/06 01:52:39;;;;;;;38.75;23.95;;;12.50;99.90;;;;;;5113906;28;20031;-67
2022/05/06 01:55:06;;;;;;;37.92;23.38;;;12.50;99.90;;;;;;5113867;28;20015;-67
2022/05/06 01:57:32;;;;;;;35.67;21.75;;;12.60;99.90;;;;;;5095762;28;20031;-67
2022/05/06 01:59:58;;;;;;;41.47;23.27;;;12.50;99.90;;;;;;5113885;28;20023;-67
2022/05/06 02:02:23;;;;;;;38.00;23.50;;;12.60;99.90;;;;;;5113670;28;20483;-67
2022/05/06 02:07:33;;;;;;;36.03;22.85;;;12.50;99.90;;;;;;5114058;28;20042;-67
2022/05/06 02:09:58;;;;;;;36.85;22.45;;;12.50;99.90;;;;;;5113589;28;20027;-67
2022/05/06 02:12:24;;;;;;;40.37;23.20;;;12.50;99.90;;;;;;5113454;28;20384;-68
2022/05/06 02:14:50;;;;;;;35.37;22.43;;;12.50;99.90;;;;;;5113776;28;20026;-69
2022/05/06 02:17:15;;;;;;;33.38;21.05;;;12.50;99.90;;;;;;5095464;28;20360;-68
2022/05/06 02:19:42;;;;;;;35.80;22.60;;;12.40;99.90;;;;;;5095386;28;20027;-68
2022/05/06 02:22:07;;;;;;;;;;;12.50;99.90;;;;;;5114021;28;20538;-68
2022/05/06 02:24:33;;;;;;;34.15;21.25;;;12.40;99.90;;;;;;5113790;28;20004;-67
2022/05/06 02:26:58;;;;;;;33.83;20.90;;;12.50;99.90;;;;;;5095091;28;20019;-67
2022/05/06 02:29:24;;;;;;;32.23;20.73;;;12.40;99.90;;;;;;5113513;28;20079;-67
2022/05/06 02:34:33;;;;;;;32.78;20.90;;;12.50;99.90;;;;;;5113457;28;20084;-67
2022/05/06 02:36:59;;;;;;;34.83;21.75;;;12.50;99.90;;;;;;5113306;28;20107;-68
2022/05/06 02:39:25;;;;;;;35.40;20.30;;;12.50;99.90;;;;;;5113313;28;20038;-67
2022/05/06 02:41:51;;;;;;;31.95;20.45;;;12.60;99.90;;;;;;5113383;28;20151;-67
2022/05/06 02:44:17;;;;;;;31.52;21.05;;;12.60;99.90;;;;;;5113452;28;20056;-68
2022/05/06 02:46:43;;;;;;;;;;;12.60;99.90;;;;;;5113752;28;20050;-67
2022/05/06 02:49:09;;;;;;;29.85;19.58;;;12.60;99.90;;;;;;5095081;28;19915;-68
2022/05/06 02:51:34;;;;;;;35.08;21.70;;;12.60;99.90;;;;;;5113437;28;20337;-67
2022/05/06 02:54:00;;;;;;;31.67;21.30;;;12.60;99.90;;;;;;5095008;28;20429;-68
2022/05/06 02:56:26;;;;;;;32.45;20.05;;;12.50;99.90;;;;;;5113391;28;20030;-67
2022/05/06 02:58:51;;;;;;;34.58;20.77;;;12.50;99.90;;;;;;5094728;28;20024;-66
2022/05/06 03:01:17;;;;;;;32.13;20.53;;;12.50;99.90;;;;;;5116213;28;20390;-67
2022/05/06 03:03:43;;;;;;;38.22;22.63;;;12.50;99.90;;;;;;5098802;28;20040;-66
2022/05/06 03:06:09;;;;;;;33.63;20.30;;;12.50;99.90;;;;;;5116890;28;20024;-66
2022/05/06 03:08:35;;;;;;;31.60;20.90;;;12.50;99.90;;;;;;5117085;28;20016;-66
2022/05/06 03:11:01;;;;;;;32.88;22.50;;;12.60;99.90;;;;;;5117151;28;20048;-66
2022/05/06 03:13:26;;;;;;;31.33;21.00;;;12.50;99.90;;;;;;5116751;28;20369;-66
2022/05/06 03:15:52;;;;;;;30.57;20.20;;;12.50;99.90;;;;;;5117158;28;20051;-67
2022/05/06 03:18:18;;;;;;;29.33;19.80;;;12.50;99.90;;;;;;5098376;28;20264;-67
2022/05/06 03:20:44;;;;;;;31.73;20.90;;;12.60;99.90;;;;;;5117126;28;20387;-67
2022/05/06 03:23:12;;;;;;;32.15;19.25;;;12.50;99.90;;;;;;5098388;28;20139;-67
2022/05/06 03:25:38;;;;;;;36.65;23.23;;;12.60;99.90;;;;;;5116625;28;20027;-67
2022/05/06 03:28:07;;;;;;;40.73;24.97;;;12.50;99.90;;;;;;5116812;28;20132;-67
2022/05/06 03:30:39;;;;;;;36.40;22.30;;;12.50;99.90;;;;;;5116700;28;20027;-67
2022/05/06 03:33:08;;;;;;;32.30;21.13;;;12.50;99.90;;;;;;5098240;28;20026;-67
2022/05/06 03:35:34;;;;;;;33.20;22.00;;;12.50;99.90;;;;;;5117003;28;20023;-67
2022/05/06 03:38:00;;;;;;;31.15;21.13;;;12.50;99.90;;;;;;5117200;28;20016;-67
2022/05/06 03:40:26;;;;;;;38.00;24.55;;;12.50;99.90;;;;;;5116790;28;20024;-67
2022/05/06 03:42:52;;;;;;;35.28;22.42;;;12.50;99.90;;;;;;5116343;28;20043;-67
2022/05/06 03:45:18;;;;;;;35.58;22.85;;;12.50;99.90;;;;;;5116476;28;20034;-67
2022/05/06 03:47:43;;;;;;;35.40;24.48;;;12.60;99.90;;;;;;5116269;28;20054;-67
2022/05/06 03:52:54;;;;;;;29.58;21.23;;;12.70;99.90;;;;;;5116456;28;20664;-67
2022/05/06 03:55:20;;;;;;;30.38;20.67;;;12.60;99.90;;;;;;5097972;28;20019;-67
2022/05/06 03:57:46;;;;;;;37.33;21.05;;;12.60;99.90;;;;;;5116128;28;20028;-67
2022/05/06 04:00:14;;;;;;;32.75;20.38;;;12.60;99.90;;;;;;5116421;28;20027;-67
2022/05/06 04:02:40;;;;;;;36.88;22.30;;;12.60;99.90;;;;;;5097764;28;20038;-67
2022/05/06 04:05:07;;;;;;;36.85;21.90;;;12.60;99.90;;;;;;5116224;28;20114;-67
2022/05/06 04:07:33;;;;;;;34.67;21.70;;;12.60;99.90;;;;;;5097812;28;20652;-67
2022/05/06 04:09:59;;;;;;;31.98;21.08;;;12.60;99.90;;;;;;5097565;28;20032;-66
2022/05/06 04:12:24;;;;;;;30.30;20.03;;;12.60;99.90;;;;;;5096302;28;20356;-66
2022/05/06 04:14:50;;;;;;;38.00;21.83;;;12.60;99.90;;;;;;5116378;28;20027;-66
2022/05/06 04:17:17;;;;;;;35.53;21.52;;;12.70;99.90;;;;;;5115724;28;20554;-66
2022/05/06 04:23:29;;;;;;;34.70;20.48;;;12.70;99.90;;;;;;5115746;28;20051;-68
2022/05/06 04:25:16;;;;;;;32.17;20.63;;;12.60;99.90;;;;;;5115913;28;20489;-66
2022/05/06 04:27:43;;;;;;;35.00;21.53;;;12.60;99.90;;;;;;5115749;28;20031;-67
2022/05/06 04:30:10;;;;;;;33.40;21.15;;;12.60;99.90;;;;;;5115780;28;20027;-67
2022/05/06 04:32:36;;;;;;;32.13;20.50;;;12.60;99.90;;;;;;5115877;28;20020;-66
2022/05/06 04:35:04;;;;;;;29.35;19.98;;;12.60;99.90;;;;;;5115751;28;20027;-66
2022/05/06 04:37:30;;;;;;;32.70;20.90;;;12.60;99.90;;;;;;5115335;28;20026;-67
2022/05/06 04:39:57;;;;;;;34.95;21.90;;;12.70;99.90;;;;;;5115344;28;20080;-67
2022/05/06 04:42:22;;;;;;;28.40;19.38;;;12.60;99.90;;;;;;5115776;28;20038;-67
2022/05/06 04:44:48;;;;;;;32.73;19.43;;;12.70;99.90;;;;;;5115672;28;20023;-66
2022/05/06 04:47:14;;;;;;;29.50;17.87;;;12.70;99.90;;;;;;5115240;28;20029;-66
2022/05/06 04:49:39;;;;;;;24.30;17.03;;;12.70;99.90;;;;;;5115053;28;20359;-66
2022/05/06 04:52:05;;;;;;;28.97;20.13;;;12.80;99.90;;;;;;5096738;28;20026;-66
2022/05/06 04:54:31;;;;;;;26.23;16.23;;;12.90;99.90;;;;;;5115200;28;20104;-66
2022/05/06 04:56:57;;;;;;;23.05;15.60;;;13.00;99.90;;;;;;5115173;28;20019;-66
2022/05/06 04:59:23;;;;;;;22.75;13.93;;;13.00;99.90;;;;;;5097179;28;20024;-66
2022/05/06 05:01:49;;;;;;;23.88;15.23;;;12.90;99.90;;;;;;5115342;28;20028;-68
2022/05/06 05:04:14;;;;;;;21.92;14.32;;;12.90;99.90;;;;;;5115041;28;20038;-67
2022/05/06 05:06:40;;;;;;;25.48;14.15;;;12.90;99.90;;;;;;5096281;28;20039;-67
2022/05/06 05:09:06;;;;;;;25.23;14.55;;;12.90;99.90;;;;;;5114712;28;20110;-67
2022/05/06 05:11:34;;;;;;;19.77;12.95;;;12.90;99.90;;;;;;5114563;28;20047;-66
2022/05/06 05:14:02;;;;;;;21.02;13.23;;;12.80;99.90;;;;;;5114810;28;20064;-65
2022/05/06 05:16:28;;;;;;;18.67;12.45;;;12.80;99.90;;;;;;5115097;28;20022;-65
2022/05/06 05:18:54;;;;;;;17.92;13.18;;;12.90;99.90;;;;;;5096413;28;20111;-66
2022/05/06 05:21:19;;;;;;;22.00;12.77;;;12.90;99.90;;;;;;5114431;28;20112;-65
2022/05/06 05:23:45;;;;;;;23.67;13.27;;;12.90;99.90;;;;;;5096021;28;20035;-64
2022/05/06 05:26:12;;;;;;;20.85;12.68;;;13.00;99.90;;;;;;5114644;28;20024;-66
2022/05/06 05:28:37;;;;;;;18.77;12.48;;;13.00;99.90;;;;;;5114289;28;20030;-68
2022/05/06 05:31:04;;;;;;;16.03;11.43;;;13.00;99.90;;;;;;5114362;28;20333;-65
2022/05/06 05:33:30;;;;;;;18.83;11.40;;;13.00;99.90;;;;;;5114277;28;20026;-68
2022/05/06 05:35:56;;;;;;;19.08;11.05;;;13.00;99.90;;;;;;5096615;28;20020;-67
2022/05/06 05:38:21;;;;;;;16.90;11.33;;;13.10;99.90;;;;;;5096767;28;20023;-64
2022/05/06 05:40:47;;;;;;;17.48;10.68;;;13.10;99.90;;;;;;5096664;28;20309;-66
2022/05/06 05:48:41;;;;;;;17.08;11.10;;;13.10;99.90;;;;;;5114901;28;20073;-66
2022/05/06 05:51:07;;;;;;;15.43;11.10;;;13.00;99.90;;;;;;5096104;28;20020;-66
2022/05/06 05:53:33;;;;;;;18.38;11.02;;;13.10;99.90;;;;;;5114046;28;20492;-67
2022/05/06 05:55:59;;;;;;;14.38;10.77;;;13.10;99.90;;;;;;5114275;28;20023;-65
2022/05/06 05:58:25;;;;;;;17.45;10.68;;;13.20;99.90;;;;;;5114611;28;20516;-66
2022/05/06 06:00:51;;;;;;;16.98;10.60;;;13.20;99.90;;;;;;5096416;28;20458;-66
2022/05/06 06:03:17;;;;;;;16.02;11.02;;;13.30;99.90;;;;;;5114953;28;20032;-65
2022/05/06 06:05:42;;;;;;;15.40;10.00;;;13.30;99.90;;;;;;5096612;28;20087;-66
2022/05/06 06:08:08;;;;;;;14.40;9.67;;;13.30;99.90;;;;;;5114454;28;20031;-66
2022/05/06 06:10:33;;;;;;;14.02;9.93;;;13.20;99.90;;;;;;5114268;28;20030;-66
2022/05/06 06:13:02;;;;;;;17.67;11.23;;;13.30;99.90;;;;;;5114376;28;20241;-66
2022/05/06 06:15:27;;;;;;;13.13;9.50;;;13.40;99.90;;;;;;5114024;28;20482;-66
2022/05/06 06:17:53;;;;;;;16.83;8.80;;;13.40;99.90;;;;;;5095110;28;20054;-66
2022/05/06 06:20:21;;;;;;;14.90;9.38;;;13.40;99.90;;;;;;5113456;28;20415;-66
2022/05/06 06:22:47;;;;;;;17.77;10.32;;;13.40;99.90;;;;;;5113630;28;20047;-66
2022/05/06 06:25:13;;;;;;;17.13;8.70;;;13.40;99.90;;;;;;5113575;28;20107;-66
2022/05/06 06:27:39;;;;;;;16.52;10.20;;;13.30;99.90;;;;;;5095101;28;20066;-65
2022/05/06 06:30:05;;;;;;;16.98;10.63;;;13.30;99.90;;;;;;5113318;28;20051;-68
2022/05/06 06:32:30;;;;;;;12.93;9.43;;;13.40;99.90;;;;;;5113430;28;20036;-66
2022/05/06 06:34:56;;;;;;;16.27;8.33;;;13.50;99.90;;;;;;5112620;28;20023;-66
2022/05/06 06:37:22;;;;;;;10.93;8.40;;;13.50;99.90;;;;;;5113505;28;20026;-65
2022/05/06 06:39:48;;;;;;;14.65;8.85;;;13.50;99.90;;;;;;5113677;28;20365;-66
2022/05/06 06:42:14;;;;;;;11.23;7.70;;;13.50;99.90;;;;;;5113066;28;20039;-65
2022/05/06 06:44:39;;;;;;;12.18;7.75;;;13.60;99.90;;;;;;5113352;28;20024;-66
2022/05/06 06:47:09;;;;;;;13.57;8.25;;;13.60;99.90;;;;;;5113254;28;20024;-65
2022/05/06 06:49:35;;;;;;;11.00;8.07;;;13.50;99.90;;;;;;5113327;28;20023;-65
2022/05/06 06:52:02;;;;;;;11.57;7.18;;;13.50;99.90;;;;;;5112958;28;20507;-66
2022/05/06 06:54:27;;;;;;;12.82;8.35;;;13.50;99.90;;;;;;5113039;28;20039;-66
2022/05/06 06:56:53;;;;;;;13.48;8.18;;;13.50;99.90;;;;;;5113103;28;20032;-66
2022/05/06 06:59:18;;;;;;;13.40;8.40;;;13.50;99.90;;;;;;5112811;28;20502;-65
2022/05/06 07:01:44;;;;;;;9.97;7.60;;;13.40;99.90;;;;;;5113629;28;20472;-65
2022/05/06 07:04:10;;;;;;;12.43;8.27;;;13.30;99.90;;;;;;5094958;28;20115;-65
2022/05/06 07:12:04;;;;;;;13.73;6.85;;;13.10;99.90;;;;;;5113625;28;20035;-65
2022/05/06 07:14:30;;;;;;;22.13;7.75;;;13.20;99.90;;;;;;5112036;28;20384;-65
2022/05/06 07:16:56;;;;;;;11.43;7.55;;;13.20;99.90;;;;;;5113649;28;20031;-65
2022/05/06 07:19:22;;;;;;;12.55;7.50;;;13.30;99.90;;;;;;5113655;28;20031;-65
2022/05/06 07:21:51;;;;;;;11.30;7.03;;;13.30;99.90;;;;;;5113505;28;20118;-64
2022/05/06 07:24:18;;;;;;;13.07;7.60;;;13.30;99.90;;;;;;5113907;28;20030;-65
2022/05/06 07:26:44;;;;;;;12.23;7.90;;;13.30;99.90;;;;;;5113751;28;20487;-64
2022/05/06 07:29:10;;;;;;;12.85;7.50;;;13.30;99.90;;;;;;5113585;28;20038;-65
2022/05/06 07:31:36;;;;;;;10.43;7.13;;;13.30;99.90;;;;;;5112913;28;20028;-65
2022/05/06 07:34:01;;;;;;;13.60;7.50;;;13.40;99.90;;;;;;5113227;28;20533;-65
2022/05/06 07:36:27;;;;;;;13.75;7.10;;;13.50;99.90;;;;;;5113386;28;20024;-65
2022/05/06 07:38:52;;;;;;;13.77;6.80;;;13.60;99.90;;;;;;5112893;28;20103;-65
2022/05/06 07:41:18;;;;;;;11.97;6.87;;;13.70;99.90;;;;;;5112860;28;20261;-65
2022/05/06 07:43:44;;;;;;;12.40;7.70;;;13.80;99.90;;;;;;5112738;28;20031;-65
2022/05/06 07:46:10;;;;;;;11.45;7.78;;;13.90;99.90;;;;;;5114182;28;20075;-65
2022/05/06 07:48:36;;;;;;;15.85;7.07;;;13.90;99.90;;;;;;5116768;28;20027;-65
2022/05/06 07:51:02;;;;;;;;;;;14.10;99.90;;;;;;5116609;28;20456;-66
2022/05/06 07:53:27;;;;;;;12.57;6.90;;;14.20;99.90;;;;;;5116107;28;19904;-65
2022/05/06 07:55:53;;;;;;;15.20;6.97;;;14.30;99.90;;;;;;5116722;28;20102;-63
2022/05/06 07:58:18;;;;;;;8.80;6.27;;;14.30;99.90;;;;;;5116305;28;20279;-63
2022/05/06 08:00:44;;;;;;;11.13;6.20;;;14.30;99.90;;;;;;5116898;28;20028;-63
2022/05/06 08:05:57;;;;;;;9.40;6.30;;;14.50;99.90;;;;;;5116268;28;20311;-63
2022/05/06 08:08:26;;;;;;;8.30;5.82;;;14.60;99.90;;;;;;5115886;28;20023;-63
2022/05/06 08:10:52;;;;;;;16.20;6.32;;;14.80;99.90;;;;;;5116024;28;20019;-64
2022/05/06 08:13:19;;;;;;;11.20;5.88;;;14.90;99.90;;;;;;5115877;28;20034;-64
2022/05/06 08:15:45;;;;;;;8.82;5.93;;;15.10;99.90;;;;;;5116031;28;20027;-64
2022/05/06 08:18:11;;;;;;;;;;;15.30;99.90;;;;;;5116452;28;20345;-66
2022/05/06 08:20:40;;;;;;;10.07;5.60;;;15.40;99.90;;;;;;5116106;28;19966;-65
2022/05/06 08:23:06;;;;;;;12.18;6.15;;;15.50;99.90;;;;;;5115584;28;20042;-66
2022/05/06 08:25:32;;;;;;;8.70;6.20;;;15.60;99.90;;;;;;5115954;28;20020;-65
2022/05/06 08:27:57;;;;;;;11.45;6.30;;;15.70;99.90;;;;;;5115424;28;20173;-66
2022/05/06 08:30:24;;;;;;;10.20;5.88;;;15.70;99.90;;;;;;5115398;28;20042;-64
2022/05/06 08:32:51;;;;;;;16.15;7.20;;;15.80;99.90;;;;;;5115386;28;20061;-64
2022/05/06 08:35:16;;;;;;;9.35;5.43;;;15.60;99.90;;;;;;5115647;28;20088;-66
2022/05/06 08:37:44;;;;;;;10.25;6.13;;;15.60;99.90;;;;;;5115671;28;20024;-66
2022/05/06 08:40:28;;;;;;;12.95;6.68;;;15.40;99.90;;;;;;5116195;28;20077;-69
2022/05/06 08:42:55;;;;;;;8.75;5.38;;;15.50;99.90;;;;;;5115692;28;20015;-66
2022/05/06 08:50:55;;;;;;;10.40;5.70;;;15.50;99.90;;;;;;5115859;28;20101;-64
2022/05/06 08:53:23;;;;;;;13.13;6.65;;;15.80;99.90;;;;;;5115320;28;20031;-66
2022/05/06 08:55:55;;;;;;;9.55;5.22;;;16.30;99.90;;;;;;5115270;28;20396;-66
2022/05/06 08:58:22;;;;;;;9.30;5.50;;;16.90;99.90;;;;;;5114655;28;20015;-67
2022/05/06 09:00:49;;;;;;;13.07;5.32;;;17.50;99.90;;;;;;5115458;28;20081;-66
2022/05/06 09:03:16;;;;;;;8.32;5.18;;;17.80;99.90;;;;;;5115260;28;20071;-68
2022/05/06 09:05:50;;;;;;;7.30;5.13;;;18.20;99.90;;;;;;5115169;28;20040;-67
2022/05/06 09:08:16;;;;;;;9.30;5.35;;;18.40;99.90;;;;;;5115135;28;20360;-66
2022/05/06 09:10:58;;;;;;;9.95;5.07;;;18.20;99.90;;;;;;5115011;28;20027;-66
2022/05/06 09:13:26;;;;;;;10.75;5.53;;;18.20;99.90;;;;;;5115186;28;20130;-66
2022/05/06 09:18:37;;;;;;;7.88;4.63;;;18.40;99.90;;;;;;5115044;28;20089;-65
2022/05/06 09:21:10;;;;;;;10.25;5.38;;;18.50;99.90;;;;;;5115197;28;20110;-66
2022/05/06 09:23:36;;;;;;;7.68;4.88;;;19.20;99.90;;;;;;5113036;28;20403;-65
2022/05/06 09:26:01;;;;;;;8.50;4.70;;;19.90;99.30;;;;;;5114516;28;20019;-64
2022/05/06 09:28:28;;;;;;;7.93;4.93;;;19.90;98.70;;;;;;5114279;28;20528;-64
2022/05/06 09:31:06;;;;;;;9.23;4.63;;;20.30;97.80;;;;;;5114231;28;20391;-62
2022/05/06 09:33:35;;;;;;;7.57;4.72;;;20.70;96.80;;;;;;5112998;28;20049;-62
2022/05/06 09:36:24;;;;;;;6.82;4.13;;;20.80;96.40;;;;;;5114267;28;20046;-63
2022/05/06 09:39:10;;;;;;;10.80;5.03;;;21.40;95.30;;;;;;5112832;28;20028;-62
2022/05/06 09:41:40;;;;;;;7.25;4.25;;;21.80;93.80;;;;;;5114351;28;20020;-63
2022/05/06 09:44:07;;;;;;;8.30;4.47;;;22.50;91.80;;;;;;5114256;28;20075;-63
2022/05/06 09:46:34;;;;;;;6.30;3.97;;;23.30;90.80;;;;;;5114104;28;20028;-62
2022/05/06 09:49:02;;;;;;;6.20;3.97;;;22.70;90.00;;;;;;5114332;28;20023;-62
2022/05/06 09:51:29;;;;;;;7.03;4.38;;;22.90;90.60;;;;;;5114014;28;20030;-63
2022/05/06 09:53:58;;;;;;;7.32;5.10;;;23.60;87.90;;;;;;5114314;28;20198;-63
2022/05/06 09:56:26;;;;;;;11.70;4.38;;;23.90;86.90;;;;;;5114340;28;20061;-63
2022/05/06 09:58:52;;;;;;;7.05;3.40;;;23.80;85.20;;;;;;5114231;28;20035;-62
2022/05/06 10:01:18;;;;;;;7.95;3.97;;;23.40;86.80;;;;;;5113868;28;20336;-62
2022/05/06 10:03:44;;;;;;;;;;;23.30;85.20;;;;;;5114319;28;20050;-63
2022/05/06 10:06:10;;;;;;;5.55;3.38;;;23.30;85.50;;;;;;5114152;28;20359;-62
2022/05/06 10:08:46;;;;;;;6.85;3.67;;;23.30;83.90;;;;;;5113501;28;20032;-63
2022/05/06 10:11:14;;;;;;;5.15;3.22;;;23.10;83.00;;;;;;5113837;28;20026;-63
2022/05/06 10:13:45;;;;;;;7.60;3.00;;;22.10;83.90;;;;;;5113933;28;20016;-64
2022/05/06 10:16:12;;;;;;;8.95;3.63;;;22.10;85.40;;;;;;5114060;28;20421;-63
2022/05/06 10:18:38;;;;;;;;;;;22.00;85.50;;;;;;5114233;28;20023;-65
2022/05/06 10:21:11;;;;;;;5.82;2.88;;;21.80;86.10;;;;;;5114226;28;19908;-65
2022/05/06 10:23:53;;;;;;;4.65;2.50;;;21.60;84.90;;;;;;5095395;28;20035;-65
2022/05/06 10:26:39;;;;;;;3.92;2.15;;;21.90;83.70;;;;;;5112867;28;20019;-65
2022/05/06 10:34:57;;;;;;;3.22;1.73;;;24.00;80.10;;;;;;5114076;28;20039;-65
2022/05/06 10:37:26;;;;;;;2.95;1.70;;;23.70;75.10;;;;;;5113255;28;20024;-65
2022/05/06 10:39:52;;;;;;;2.88;1.90;;;24.20;73.90;;;;;;5113517;28;20430;-65
2022/05/06 10:42:30;;;;;;;5.03;1.75;;;24.20;69.80;;;;;;5113483;28;20052;-65
2022/05/06 10:44:56;;;;;;;9.13;1.83;;;23.80;70.90;;;;;;5113623;28;20024;-64
2022/05/06 10:47:22;;;;;;;;;;;23.00;69.70;;;;;;5097149;28;20051;-66
2022/05/06 10:49:52;;;;;;;3.60;1.23;;;22.50;70.20;;;;;;5114372;28;20245;-64
2022/05/06 10:55:15;;;;;;;;;;;22.30;69.90;;;;;;5118824;28;20070;-65
2022/05/06 10:57:49;;;;;;;2.78;1.92;;;22.20;69.30;;;;;;5032647;28;19913;-65
2022/05/06 11:00:15;;;;;;;4.93;1.25;;;22.00;68.70;;;;;;5033080;28;20044;-66
2022/05/06 11:02:41;;;;;;;;;;;22.20;67.80;;;;;;5032702;28;20040;-66
2022/05/06 11:05:14;;;;;;;2.85;1.17;;;22.40;67.40;;;;;;5032253;28;19940;-66
2022/05/06 11:07:42;;;;;;;3.17;1.25;;;22.10;66.70;;;;;;5031417;28;20046;-65
2022/05/06 11:10:18;;;;;;;6.00;1.48;;;21.80;66.60;;;;;;5030580;28;20061;-64
2022/05/06 11:12:52;;;;;;;2.85;1.48;;;21.60;67.30;;;;;;5030681;28;20033;-65
2022/05/06 11:15:22;;;;;;;2.25;0.95;;;21.50;66.30;;;;;;5014177;28;20029;-65
2022/05/06 11:17:49;;;;;;;5.25;1.25;;;21.20;66.90;;;;;;5030698;28;20387;-64
2022/05/06 11:20:23;;;;;;;4.40;1.50;;;20.70;68.20;;;;;;5031063;28;20037;-66
2022/05/06 11:22:49;;;;;;;4.25;1.35;;;20.70;68.50;;;;;;5034290;28;20041;-67
2022/05/06 11:25:15;;;;;;;3.03;1.20;;;20.90;67.10;;;;;;5017844;28;20040;-67
2022/05/06 11:27:40;;;;;;;;;;;20.60;67.30;;;;;;5034782;28;20075;-68
2022/05/06 11:30:08;;;;;;;3.05;1.30;;;20.40;65.70;;;;;;5034961;28;20007;-68
2022/05/06 11:32:34;;;;;;;3.97;0.80;;;20.20;66.00;;;;;;5051992;28;20032;-69
2022/05/06 11:35:37;;;;;;;6.80;1.30;;;20.20;66.40;;;;;;5098759;28;20024;-67
2022/05/06 11:38:02;;;;;;;2.90;1.15;;;20.10;66.80;;;;;;5117316;28;20110;-67
2022/05/06 11:40:36;;;;;;;2.45;1.20;;;20.10;66.50;;;;;;5116889;28;20157;-70
2022/05/06 11:43:08;;;;;;;4.03;1.60;;;20.00;68.80;;;;;;5116414;28;20031;-68
2022/05/06 11:48:22;;;;;;;4.03;1.10;;;20.40;67.30;;;;;;5117075;28;20507;-67
2022/05/06 11:50:53;;;;;;;2.20;1.02;;;20.60;66.60;;;;;;5116283;28;20027;-67
2022/05/06 11:53:19;;;;;;;4.97;2.33;;;20.60;67.60;;;;;;5116405;28;20027;-67
2022/05/06 11:55:49;;;;;;;8.35;1.90;;;20.40;67.80;;;;;;5116158;28;20011;-67
2022/05/06 11:58:16;;;;;;;3.58;1.50;;;20.20;67.90;;;;;;5116310;28;20077;-68
2022/05/06 12:00:43;;;;;;;2.42;1.20;;;20.20;67.70;;;;;;5116079;28;20387;-67
2022/05/06 12:03:10;;;;;;;6.05;1.55;;;20.10;67.80;;;;;;5116045;28;20102;-67
2022/05/06 12:05:40;;;;;;;3.13;1.40;;;20.20;68.60;;;;;;5097650;28;20066;-68
2022/05/06 12:08:10;;;;;;;5.18;1.10;;;20.10;66.90;;;;;;5097876;28;20472;-67
2022/05/06 12:10:37;;;;;;;4.30;1.02;;;20.10;66.00;;;;;;5116059;28;20024;-69
2022/05/06 12:13:07;;;;;;;1.45;1.08;;;20.00;67.80;;;;;;5097813;28;20491;-67
2022/05/06 12:15:33;;;;;;;2.38;1.15;;;19.90;66.20;;;;;;5116166;28;20476;-67
2022/05/06 12:18:11;;;;;;;3.72;1.30;;;19.90;67.20;;;;;;5116279;28;20031;-69
2022/05/06 12:20:39;;;;;;;5.13;1.48;;;20.00;66.10;;;;;;5116048;28;20060;-67
2022/05/06 12:23:07;;;;;;;4.13;0.95;;;20.10;67.70;;;;;;5137153;22;20083;-60
2022/05/06 12:25:39;;;;;;;3.92;1.40;;;20.20;66.60;;;;;;5096715;28;20387;-61
2022/05/06 12:28:17;;;;;;;4.30;1.30;;;20.20;67.60;;;;;;5096515;28;20063;-61
2022/05/06 12:30:44;;;;;;;2.30;1.40;;;20.30;66.90;;;;;;5096305;28;20468;-61
2022/05/06 12:33:13;;;;;;;3.10;1.23;;;20.20;65.30;;;;;;5076216;28;20065;-63
2022/05/06 12:35:58;;;;;;;5.18;1.52;;;20.00;65.80;;;;;;5096898;28;20072;-63
2022/05/06 12:38:24;;;;;;;6.90;1.65;;;20.00;66.70;;;;;;5096671;28;20510;-61
2022/05/06 12:40:51;;;;;;;4.57;1.60;;;19.90;68.30;;;;;;5077219;28;20088;-62
2022/05/06 12:43:24;;;;;;;6.55;1.40;;;19.80;68.80;;;;;;5095932;28;20468;-58
2022/05/06 12:46:00;;;;;;;2.58;1.45;;;19.80;67.80;;;;;;5095673;28;20024;-61
2022/05/06 12:51:10;;;;;;;4.70;1.60;;;20.20;67.50;;;;;;5095724;28;20210;-63
2022/05/06 12:53:36;;;;;;;4.60;1.52;;;20.20;67.50;;;;;;5095215;28;20558;-60
2022/05/06 12:56:03;;;;;;;2.17;1.25;;;20.10;67.70;;;;;;5094859;28;20050;-62
2022/05/06 12:58:29;;;;;;;4.03;1.25;;;20.20;67.50;;;;;;5095160;28;20032;-61
2022/05/06 13:00:58;;;;;;;4.53;1.42;;;20.40;66.70;;;;;;5094821;28;20020;-59
2022/05/06 13:03:24;;;;;;;4.35;1.40;;;20.20;66.70;;;;;;5077663;28;20024;-62
2022/05/06 13:05:50;;;;;;;2.75;1.15;;;20.20;68.50;;;;;;5096120;28;20034;-62
2022/05/06 13:08:16;;;;;;;1.98;1.10;;;20.10;68.30;;;;;;5095397;28;20472;-60
2022/05/06 13:10:42;;;;;;;3.05;1.27;;;20.10;68.10;;;;;;5094433;28;20145;-58
2022/05/06 13:13:07;;;;;;;3.28;1.40;;;20.20;67.70;;;;;;5094940;28;20473;-58
2022/05/06 13:15:33;;;;;;;5.15;1.67;;;20.10;67.90;;;;;;5094614;28;20027;-60
2022/05/06 13:17:59;;;;;;;1.75;1.20;;;20.30;68.20;;;;;;5094536;28;20034;-60
2022/05/06 13:20:24;;;;;;;3.45;1.10;;;20.20;66.90;;;;;;5094485;28;20047;-60
2022/05/06 13:22:50;;;;;;;3.42;1.20;;;20.30;67.10;;;;;;5094509;28;20028;-58
2022/05/06 13:25:17;;;;;;;2.47;1.17;;;20.40;67.50;;;;;;5094781;28;20050;-61
2022/05/06 13:27:42;;;;;;;3.17;1.10;;;20.50;68.40;;;;;;5094742;28;20039;-62